createdAt,value
2018-12-04T00:01:35.208Z,72.48
2018-12-04T00:04:03.461Z,71.84
2018-12-04T00:06:31.697Z,71.54
2018-12-04T00:08:59.963Z,72.18
2018-12-04T00:11:28.294Z,72.79
2018-12-04T00:13:56.545Z,73.15
2018-12-04T00:16:24.799Z,72.23
2018-12-04T00:18:53.184Z,71.84
2018-12-04T00:21:21.419Z,72.07
2018-12-04T00:23:49.668Z,70.65
2018-12-04T00:26:18.048Z,71.57
2018-12-04T00:28:46.333Z,72.70
2018-12-04T00:31:14.613Z,72.15
2018-12-04T00:33:42.873Z,72.14
2018-12-04T00:36:11.129Z,71.98
2018-12-04T00:38:39.372Z,72.38
2018-12-04T00:41:07.638Z,73.66
2018-12-04T00:43:35.877Z,74.08
2018-12-04T00:46:04.148Z,73.73
2018-12-04T00:48:32.383Z,74.24
2018-12-04T00:51:00.767Z,74.68
2018-12-04T00:53:29.038Z,73.02
2018-12-04T00:55:57.325Z,73.44
2018-12-04T00:58:25.585Z,73.52
2018-12-04T01:00:53.912Z,74.41
2018-12-04T01:03:22.152Z,73.57
2018-12-04T01:05:50.420Z,72.97
2018-12-04T01:08:18.693Z,73.19
2018-12-04T01:10:46.993Z,73.51
2018-12-04T01:13:15.289Z,72.60
2018-12-04T01:15:43.576Z,72.41
2018-12-04T01:18:11.848Z,71.73
2018-12-04T01:20:40.209Z,72.51
2018-12-04T01:23:08.491Z,72.53
2018-12-04T01:25:37.014Z,73.03
2018-12-04T01:28:05.252Z,73.33
2018-12-04T01:30:33.499Z,74.00
2018-12-04T01:33:01.763Z,74.08
2018-12-04T01:35:30.118Z,74.02
2018-12-04T01:37:58.361Z,73.54
2018-12-04T01:40:26.624Z,73.36
2018-12-04T01:42:54.914Z,73.78
2018-12-04T01:45:23.247Z,73.40
2018-12-04T01:47:51.503Z,73.11
2018-12-04T01:50:19.760Z,73.95
2018-12-04T01:52:48.037Z,72.37
2018-12-04T01:55:16.399Z,72.34
2018-12-04T01:57:44.697Z,72.30
2018-12-04T02:00:12.954Z,73.28
2018-12-04T02:02:41.193Z,73.46
2018-12-04T02:05:09.484Z,72.26
2018-12-04T02:07:37.752Z,71.33
2018-12-04T02:10:06.118Z,71.81
2018-12-04T02:12:34.393Z,72.13
2018-12-04T02:15:04.169Z,73.56
2018-12-04T02:17:32.437Z,73.05
2018-12-04T02:20:00.696Z,73.17
2018-12-04T02:22:28.940Z,74.37
2018-12-04T02:24:57.363Z,73.91
2018-12-04T02:27:25.663Z,75.25
2018-12-04T02:29:53.908Z,76.29
2018-12-04T02:32:22.168Z,75.19
2018-12-04T02:34:50.417Z,74.64
2018-12-04T02:37:18.698Z,74.59
2018-12-04T02:39:46.981Z,74.35
2018-12-04T02:44:55.346Z,72.51
2018-12-04T02:47:23.575Z,73.36
2018-12-04T02:49:51.846Z,72.29
2018-12-04T02:52:20.093Z,73.89
2018-12-04T02:54:48.337Z,73.39
2018-12-04T02:57:16.843Z,73.58
2018-12-04T02:59:45.088Z,73.11
2018-12-04T03:02:13.358Z,73.66
2018-12-04T03:04:41.621Z,73.65
2018-12-04T03:07:09.880Z,72.73
2018-12-04T03:09:38.159Z,74.03
2018-12-04T03:12:06.441Z,74.88
2018-12-04T03:14:34.704Z,74.85
2018-12-04T03:17:02.948Z,75.65
2018-12-04T03:19:31.208Z,76.09
2018-12-04T03:21:59.449Z,75.82
2018-12-04T03:24:27.740Z,76.60
2018-12-04T03:26:55.997Z,75.79
2018-12-04T03:29:24.332Z,76.54
2018-12-04T03:31:53.269Z,77.08
2018-12-04T03:34:21.543Z,78.24
2018-12-04T03:36:49.836Z,78.34
2018-12-04T03:39:18.100Z,78.29
2018-12-04T03:41:46.481Z,78.28
2018-12-04T03:44:14.765Z,78.66
2018-12-04T03:46:43.024Z,78.97
2018-12-04T03:49:11.534Z,78.06
2018-12-04T03:51:39.778Z,78.54
2018-12-04T03:54:08.020Z,78.76
2018-12-04T03:56:36.323Z,78.95
2018-12-04T03:59:04.632Z,79.17
2018-12-04T04:01:32.905Z,79.70
2018-12-04T04:04:02.385Z,79.61
2018-12-04T04:06:30.616Z,80.18
2018-12-04T04:08:58.911Z,80.89
2018-12-04T04:11:28.280Z,81.15
2018-12-04T04:13:56.549Z,81.33
2018-12-04T04:16:24.921Z,81.84
2018-12-04T04:18:53.168Z,81.85
2018-12-04T04:21:21.463Z,82.23
2018-12-04T04:23:49.708Z,81.65
2018-12-04T04:26:18.112Z,82.22
2018-12-04T04:28:46.396Z,82.44
2018-12-04T04:31:14.724Z,83.35
2018-12-04T04:33:43.112Z,82.74
2018-12-04T04:36:11.375Z,83.53
2018-12-04T04:38:39.634Z,83.64
2018-12-04T04:41:07.901Z,83.68
2018-12-04T04:43:36.140Z,83.88
2018-12-04T04:46:04.496Z,83.92
2018-12-04T04:48:32.745Z,83.56
2018-12-04T04:51:01.054Z,83.66
2018-12-04T04:53:29.546Z,83.29
2018-12-04T04:55:57.831Z,83.36
2018-12-04T04:58:26.115Z,82.97
2018-12-04T05:00:54.373Z,84.35
2018-12-04T05:03:22.605Z,84.08
2018-12-04T05:05:50.912Z,84.27
2018-12-04T05:08:19.184Z,83.96
2018-12-04T05:10:47.438Z,83.98
2018-12-04T05:13:15.699Z,82.29
2018-12-04T05:15:43.955Z,82.45
2018-12-04T05:18:12.282Z,82.30
2018-12-04T05:20:40.573Z,81.39
2018-12-04T05:23:08.916Z,81.37
2018-12-04T05:25:37.217Z,80.82
2018-12-04T05:28:05.513Z,80.36
2018-12-04T05:30:33.771Z,80.44
2018-12-04T05:33:02.012Z,80.80
2018-12-04T05:35:30.280Z,79.42
2018-12-04T05:37:58.557Z,79.60
2018-12-04T05:40:26.808Z,80.35
2018-12-04T05:42:55.095Z,80.63
2018-12-04T05:45:23.396Z,81.02
2018-12-04T05:47:51.660Z,81.11
2018-12-04T05:50:19.915Z,81.26
2018-12-04T05:55:47.441Z,81.91
2018-12-04T05:58:15.684Z,81.28
2018-12-04T06:00:43.941Z,81.45
2018-12-04T06:03:12.214Z,81.83
2018-12-04T06:05:40.474Z,82.11
2018-12-04T06:08:08.826Z,82.98
2018-12-04T06:10:37.135Z,84.18
2018-12-04T06:13:05.408Z,84.11
2018-12-04T06:15:33.708Z,84.86
2018-12-04T06:18:01.956Z,85.17
2018-12-04T06:20:30.277Z,85.04
2018-12-04T06:22:58.573Z,85.30
2018-12-04T06:25:26.806Z,85.64
2018-12-04T06:27:55.073Z,85.92
2018-12-04T06:30:23.333Z,86.57
2018-12-04T06:32:51.575Z,86.61
2018-12-04T06:35:19.901Z,86.96
2018-12-04T06:37:48.172Z,86.97
2018-12-04T06:40:16.441Z,87.86
2018-12-04T06:42:44.699Z,88.58
2018-12-04T06:45:13.019Z,89.60
2018-12-04T06:47:41.259Z,89.08
2018-12-04T06:50:10.793Z,89.57
2018-12-04T06:52:39.341Z,89.45
2018-12-04T06:55:08.727Z,90.27
2018-12-04T06:57:38.212Z,89.71
2018-12-04T07:00:06.858Z,89.77
2018-12-04T07:02:35.144Z,89.52
2018-12-04T07:05:03.654Z,88.64
2018-12-04T07:07:31.944Z,87.52
2018-12-04T07:10:00.194Z,87.32
2018-12-04T07:12:28.444Z,87.20
2018-12-04T07:14:56.715Z,87.39
2018-12-04T07:17:24.972Z,88.28
2018-12-04T07:19:53.242Z,89.42
2018-12-04T07:22:21.530Z,90.06
2018-12-04T07:24:49.779Z,90.97
2018-12-04T07:27:18.032Z,92.45
2018-12-04T07:29:46.424Z,92.46
2018-12-04T07:32:14.656Z,93.25
2018-12-04T07:34:42.939Z,93.96
2018-12-04T07:37:11.210Z,93.71
2018-12-04T07:39:39.489Z,94.00
2018-12-04T07:42:07.770Z,93.05
2018-12-04T07:44:36.061Z,93.78
2018-12-04T07:47:04.419Z,93.12
2018-12-04T07:49:32.721Z,93.60
2018-12-04T07:52:00.973Z,93.39
2018-12-04T07:54:29.282Z,93.15
2018-12-04T07:56:57.621Z,92.90
2018-12-04T07:59:26.385Z,92.34
2018-12-04T08:01:54.876Z,91.95
2018-12-04T08:04:23.200Z,91.59
2018-12-04T08:06:51.476Z,90.78
2018-12-04T08:09:20.963Z,90.61
2018-12-04T08:11:49.221Z,89.79
2018-12-04T08:14:17.499Z,90.15
2018-12-04T08:16:45.754Z,88.93
2018-12-04T08:19:14.043Z,89.69
2018-12-04T08:21:42.401Z,88.72
2018-12-04T08:24:10.642Z,88.25
2018-12-04T08:26:39.076Z,86.39
2018-12-04T08:29:07.569Z,86.65
2018-12-04T08:31:35.855Z,86.45
2018-12-04T08:34:04.154Z,84.72
2018-12-04T08:36:32.421Z,85.00
2018-12-04T08:39:00.797Z,84.74
2018-12-04T08:41:29.040Z,85.27
2018-12-04T08:43:57.336Z,84.56
2018-12-04T08:46:25.579Z,84.34
2018-12-04T08:48:53.848Z,84.46
2018-12-04T08:51:22.108Z,83.76
2018-12-04T08:53:50.407Z,84.43
2018-12-04T08:56:18.688Z,84.53
2018-12-04T08:58:47.156Z,84.25
2018-12-04T09:01:15.433Z,85.35
2018-12-04T09:03:43.724Z,84.99
2018-12-04T09:06:12.049Z,84.57
2018-12-04T09:08:40.502Z,84.41
2018-12-04T09:11:08.848Z,84.71
2018-12-04T09:13:37.185Z,83.74
2018-12-04T09:16:05.545Z,84.36
2018-12-04T09:18:33.814Z,84.57
2018-12-04T09:21:02.173Z,85.24
2018-12-04T09:23:30.501Z,84.99
2018-12-04T09:25:58.879Z,84.82
2018-12-04T09:28:27.180Z,83.93
2018-12-04T09:30:55.461Z,81.53
2018-12-04T09:33:23.719Z,80.69
2018-12-04T09:35:52.060Z,79.57
2018-12-04T09:38:20.325Z,79.98
2018-12-04T09:40:48.825Z,79.14
2018-12-04T09:43:17.084Z,81.00
2018-12-04T09:45:45.356Z,80.58
2018-12-04T09:48:13.653Z,80.71
2018-12-04T09:50:42.024Z,80.09
2018-12-04T09:53:10.303Z,81.21
2018-12-04T09:55:38.584Z,81.38
2018-12-04T09:58:06.819Z,82.28
2018-12-04T10:00:35.100Z,80.97
2018-12-04T10:03:03.381Z,80.86
2018-12-04T10:05:32.155Z,84.54
2018-12-04T10:08:00.585Z,85.25
2018-12-04T10:10:28.855Z,90.21
2018-12-04T10:12:57.195Z,92.88
2018-12-04T10:15:25.578Z,93.97
2018-12-04T10:17:53.900Z,97.26
2018-12-04T10:20:22.150Z,98.07
2018-12-04T10:22:50.406Z,97.97
2018-12-04T10:25:18.660Z,96.65
2018-12-04T10:27:46.912Z,95.71
2018-12-04T10:30:15.202Z,94.43
2018-12-04T10:35:24.237Z,94.98
2018-12-04T10:37:52.485Z,96.28
2018-12-04T10:40:20.736Z,98.30
2018-12-04T10:42:48.995Z,97.76
2018-12-04T10:45:17.264Z,99.10
2018-12-04T10:47:45.505Z,98.84
2018-12-04T10:50:13.765Z,98.93
2018-12-04T10:52:42.044Z,98.88
2018-12-04T10:55:10.321Z,97.30
2018-12-04T10:57:38.610Z,97.81
2018-12-04T11:00:11.265Z,97.51
2018-12-04T11:02:44.527Z,97.00
2018-12-04T11:05:12.847Z,96.99
2018-12-04T11:07:41.104Z,97.89
2018-12-04T11:10:09.353Z,97.45
2018-12-04T11:12:37.604Z,98.59
2018-12-04T11:15:06.158Z,98.96
2018-12-04T11:17:34.495Z,98.91
2018-12-04T11:20:02.973Z,99.20
2018-12-04T11:22:31.213Z,98.28
2018-12-04T11:24:59.541Z,98.34
2018-12-04T11:27:28.065Z,97.51
2018-12-04T11:29:56.313Z,96.29
2018-12-04T11:32:24.554Z,95.19
2018-12-04T11:34:52.833Z,95.54
2018-12-04T11:37:21.072Z,95.56
2018-12-04T11:39:49.328Z,96.40
2018-12-04T11:42:17.622Z,95.50
2018-12-04T11:44:45.909Z,95.64
2018-12-04T11:47:14.148Z,95.16
2018-12-04T11:49:42.391Z,95.40
2018-12-04T11:52:10.646Z,94.53
2018-12-04T11:54:38.909Z,92.82
2018-12-04T11:57:07.153Z,93.36
2018-12-04T11:59:35.404Z,93.95
2018-12-04T12:02:03.809Z,92.26
2018-12-04T12:04:32.102Z,91.27
2018-12-04T12:07:00.332Z,88.44
2018-12-04T12:09:28.588Z,88.94
2018-12-04T12:11:56.889Z,91.31
2018-12-04T12:14:25.128Z,91.71
2018-12-04T12:16:53.448Z,92.49
2018-12-04T12:19:21.731Z,92.49
2018-12-04T12:21:49.965Z,92.56
2018-12-04T12:24:18.232Z,92.43
2018-12-04T12:26:46.523Z,90.89
2018-12-04T12:29:14.769Z,91.51
2018-12-04T12:31:43.023Z,91.12
2018-12-04T12:34:11.284Z,89.75
2018-12-04T12:36:39.552Z,91.32
2018-12-04T12:39:08.389Z,90.32
2018-12-04T12:41:37.907Z,88.06
2018-12-04T12:44:06.310Z,87.15
2018-12-04T12:46:34.563Z,88.54
2018-12-04T12:49:02.828Z,89.16
2018-12-04T12:51:31.088Z,90.22
2018-12-04T12:53:59.367Z,90.20
2018-12-04T12:56:27.705Z,91.10
2018-12-04T12:58:55.960Z,91.61
2018-12-04T13:01:24.234Z,93.55
2018-12-04T13:03:52.484Z,92.87
2018-12-04T13:06:21.340Z,92.15
2018-12-04T13:08:49.617Z,91.80
2018-12-04T13:11:17.868Z,91.94
2018-12-04T13:13:46.117Z,92.63
2018-12-04T13:16:14.508Z,93.83
2018-12-04T13:18:42.846Z,93.78
2018-12-04T13:21:11.108Z,93.82
2018-12-04T13:23:39.477Z,95.13
2018-12-04T13:26:07.745Z,96.05
2018-12-04T13:28:35.992Z,96.78
2018-12-04T13:31:04.353Z,95.24
2018-12-04T13:33:32.692Z,97.44
2018-12-04T13:36:01.004Z,98.16
2018-12-04T13:38:29.303Z,98.96
2018-12-04T13:40:57.562Z,97.68
2018-12-04T13:43:25.891Z,97.32
2018-12-04T13:45:54.387Z,97.86
2018-12-04T13:48:22.727Z,99.14
2018-12-04T13:50:51.087Z,97.95
2018-12-04T13:53:19.457Z,97.53
2018-12-04T13:55:47.812Z,97.37
2018-12-04T13:58:17.302Z,96.35
2018-12-04T14:00:46.431Z,95.72
2018-12-04T14:03:14.881Z,95.67
2018-12-04T14:05:43.284Z,95.45
2018-12-04T14:08:11.595Z,97.22
2018-12-04T14:10:39.941Z,97.99
2018-12-04T14:13:08.196Z,98.57
2018-12-04T14:15:36.560Z,98.88
2018-12-04T14:18:04.906Z,99.03
2018-12-04T14:20:33.224Z,98.41
2018-12-04T14:23:01.523Z,99.64
2018-12-04T14:25:29.893Z,99.80
2018-12-04T14:27:58.184Z,100.00
2018-12-04T14:30:26.446Z,100.00
2018-12-04T14:32:54.777Z,100.00
2018-12-04T14:35:23.082Z,100.00
2018-12-04T14:37:51.352Z,100.00
2018-12-04T14:40:19.659Z,100.00
2018-12-04T14:42:48.053Z,100.00
2018-12-04T14:45:16.405Z,100.00
2018-12-04T14:50:24.267Z,100.00
2018-12-04T14:52:52.607Z,100.00
2018-12-04T14:55:20.885Z,100.00
2018-12-04T14:57:49.237Z,100.00
2018-12-04T15:00:17.685Z,100.00
2018-12-04T15:02:46.084Z,100.00
2018-12-04T15:05:15.694Z,100.00
2018-12-04T15:07:43.973Z,100.00
2018-12-04T15:10:12.221Z,100.00
2018-12-04T15:12:40.513Z,100.00
2018-12-04T15:17:47.288Z,100.00
2018-12-04T15:20:15.643Z,100.00
2018-12-04T15:22:43.979Z,100.00
2018-12-04T15:25:12.393Z,100.00
2018-12-04T15:27:40.702Z,100.00
2018-12-04T15:30:09.290Z,100.00
2018-12-04T15:32:37.620Z,100.00
2018-12-04T15:35:06.262Z,100.00
2018-12-04T15:37:34.554Z,100.00
2018-12-04T15:40:03.272Z,100.00
2018-12-04T15:42:31.614Z,100.00
2018-12-04T15:44:59.978Z,100.00
2018-12-04T15:47:28.298Z,100.00
2018-12-04T15:49:56.616Z,100.00
2018-12-04T15:52:26.192Z,100.00
2018-12-04T15:54:54.563Z,100.00
2018-12-04T15:57:22.879Z,100.00
2018-12-04T15:59:51.168Z,100.00
2018-12-04T16:02:19.492Z,100.00
2018-12-04T16:04:47.752Z,100.00
2018-12-04T16:07:16.153Z,100.00
2018-12-04T16:09:45.048Z,100.00
2018-12-04T16:12:13.314Z,100.00
2018-12-04T16:14:41.558Z,100.00
2018-12-04T16:17:15.155Z,100.00
2018-12-04T16:19:40.204Z,100.00
2018-12-04T16:22:08.669Z,100.00
2018-12-04T16:24:36.988Z,100.00
2018-12-04T16:27:05.295Z,100.00
2018-12-04T16:29:33.565Z,100.00
2018-12-04T16:32:01.816Z,100.00
2018-12-04T16:34:30.291Z,100.00
2018-12-04T16:36:58.541Z,100.00
2018-12-04T16:39:26.827Z,100.00
2018-12-04T16:41:55.087Z,100.00
2018-12-04T16:44:23.360Z,100.00
2018-12-04T16:46:51.623Z,100.00
2018-12-04T16:49:19.903Z,100.00
2018-12-04T16:51:48.196Z,100.00
2018-12-04T16:54:16.462Z,100.00
2018-12-04T16:56:44.708Z,100.00
2018-12-04T16:59:13.281Z,100.00
2018-12-04T17:01:41.583Z,100.00
2018-12-04T17:04:09.899Z,100.00
2018-12-04T17:06:38.279Z,100.00
2018-12-04T17:09:06.997Z,100.00
2018-12-04T17:11:35.260Z,100.00
2018-12-04T17:14:03.584Z,100.00
2018-12-04T17:16:31.880Z,100.00
2018-12-04T17:19:00.187Z,100.00
2018-12-04T17:21:28.429Z,100.00
2018-12-04T17:23:56.808Z,100.00
2018-12-04T17:26:25.104Z,100.00
2018-12-04T17:28:53.385Z,100.00
2018-12-04T17:31:21.671Z,100.00
2018-12-04T17:33:49.920Z,100.00
2018-12-04T17:36:18.549Z,100.00
2018-12-04T17:38:46.793Z,100.00
2018-12-04T17:41:15.060Z,100.00
2018-12-04T17:43:43.311Z,100.00
2018-12-04T17:46:11.592Z,100.00
2018-12-04T17:48:39.848Z,100.00
2018-12-04T17:51:08.092Z,100.00
2018-12-04T17:53:36.427Z,100.00
2018-12-04T17:56:04.828Z,100.00
2018-12-04T17:58:33.118Z,100.00
2018-12-04T18:01:01.457Z,100.00
2018-12-04T18:03:29.706Z,100.00
2018-12-04T18:05:58.008Z,100.00
2018-12-04T18:08:26.272Z,100.00
2018-12-04T18:10:54.637Z,100.00
2018-12-04T18:13:22.916Z,100.00
2018-12-04T18:15:51.221Z,100.00
2018-12-04T18:18:19.482Z,100.00
2018-12-04T18:20:47.749Z,100.00
2018-12-04T18:23:16.021Z,100.00
2018-12-04T18:25:44.301Z,100.00
2018-12-04T18:28:12.565Z,100.00
2018-12-04T18:30:40.959Z,100.00
2018-12-04T18:33:09.248Z,100.00
2018-12-04T18:35:37.597Z,100.00
2018-12-04T18:38:05.849Z,100.00
2018-12-04T18:40:34.103Z,100.00
2018-12-04T18:43:02.417Z,100.00
2018-12-04T18:45:32.110Z,100.00
2018-12-04T18:48:00.769Z,100.00
2018-12-04T18:50:29.130Z,100.00
2018-12-04T18:52:57.401Z,100.00
2018-12-04T18:55:25.712Z,100.00
2018-12-04T18:57:54.056Z,100.00
2018-12-04T19:00:22.352Z,100.00
2018-12-04T19:02:50.645Z,100.00
2018-12-04T19:05:18.943Z,100.00
2018-12-04T19:07:47.293Z,100.00
2018-12-04T19:10:15.596Z,100.00
2018-12-04T19:12:44.064Z,100.00
2018-12-04T19:15:12.367Z,100.00
2018-12-04T19:17:40.641Z,100.00
2018-12-04T19:20:09.004Z,100.00
2018-12-04T19:22:37.315Z,100.00
2018-12-04T19:25:05.887Z,100.00
2018-12-04T19:27:34.156Z,100.00
2018-12-04T19:30:02.594Z,100.00
2018-12-04T19:32:30.919Z,100.00
2018-12-04T19:34:59.200Z,100.00
2018-12-04T19:37:27.519Z,100.00
2018-12-04T19:39:57.034Z,100.00
2018-12-04T19:42:25.411Z,100.00
2018-12-04T19:44:53.681Z,100.00
2018-12-04T19:47:22.000Z,100.00
2018-12-04T19:49:50.572Z,100.00
2018-12-04T19:52:18.970Z,100.00
2018-12-04T19:54:47.245Z,100.00
2018-12-04T19:57:15.588Z,100.00
2018-12-04T19:59:43.844Z,100.00
2018-12-04T20:02:12.140Z,100.00
2018-12-04T20:04:40.468Z,100.00
2018-12-04T20:07:09.161Z,100.00
2018-12-04T20:09:37.472Z,100.00
2018-12-04T20:12:05.997Z,100.00
2018-12-04T20:14:34.261Z,100.00
2018-12-04T20:17:02.512Z,100.00
2018-12-04T20:19:31.100Z,100.00
2018-12-04T20:21:59.766Z,100.00
2018-12-04T20:24:28.241Z,100.00
2018-12-04T20:26:56.678Z,100.00
2018-12-04T20:29:25.209Z,100.00
2018-12-04T20:31:53.664Z,100.00
2018-12-04T20:34:22.051Z,100.00
2018-12-04T20:36:50.311Z,100.00
2018-12-04T20:39:18.818Z,100.00
2018-12-04T20:41:48.364Z,100.00
2018-12-04T20:44:16.962Z,100.00
2018-12-04T20:46:45.252Z,100.00
2018-12-04T20:49:13.567Z,100.00
2018-12-04T20:51:41.825Z,100.00
2018-12-04T20:54:10.161Z,100.00
2018-12-04T20:56:38.440Z,100.00
2018-12-04T20:59:06.812Z,100.00
2018-12-04T21:01:35.140Z,100.00
2018-12-04T21:04:03.665Z,100.00
2018-12-04T21:06:31.936Z,100.00
2018-12-04T21:09:00.518Z,100.00
2018-12-04T21:11:28.780Z,100.00
2018-12-04T21:13:57.314Z,100.00
2018-12-04T21:16:25.556Z,100.00
2018-12-04T21:18:54.090Z,100.00
2018-12-04T21:21:22.346Z,100.00
2018-12-04T21:23:50.833Z,100.00
2018-12-04T21:26:19.073Z,100.00
2018-12-04T21:34:48.333Z,100.00
2018-12-04T21:37:18.583Z,100.00
2018-12-04T21:42:38.577Z,100.00
2018-12-04T21:45:12.320Z,100.00
2018-12-04T21:47:46.148Z,100.00
2018-12-04T21:50:15.414Z,100.00
2018-12-04T21:52:43.708Z,100.00
2018-12-04T21:55:12.040Z,100.00
2018-12-04T21:57:40.606Z,100.00
2018-12-04T22:00:09.034Z,100.00
2018-12-04T22:02:37.267Z,100.00
2018-12-04T22:05:05.932Z,100.00
2018-12-04T22:07:34.187Z,100.00
2018-12-04T22:10:02.625Z,100.00
2018-12-04T22:12:30.908Z,100.00
2018-12-04T22:14:59.202Z,100.00
2018-12-04T22:17:27.451Z,100.00
2018-12-04T22:19:55.740Z,100.00
2018-12-04T22:22:23.994Z,100.00
2018-12-04T22:24:52.303Z,100.00
2018-12-04T22:27:20.568Z,100.00
2018-12-04T22:29:48.833Z,100.00
2018-12-04T22:32:17.106Z,100.00
2018-12-04T22:34:45.504Z,100.00
2018-12-04T22:37:13.874Z,100.00
2018-12-04T22:39:42.179Z,100.00
2018-12-04T22:42:10.424Z,100.00
2018-12-04T22:44:38.756Z,100.00
2018-12-04T22:47:07.053Z,100.00
2018-12-04T22:49:35.345Z,100.00
2018-12-04T22:52:04.267Z,100.00
2018-12-04T22:54:32.561Z,100.00
2018-12-04T22:57:00.901Z,100.00
2018-12-04T22:59:29.192Z,100.00
2018-12-04T23:01:57.561Z,100.00
2018-12-04T23:04:25.956Z,100.00
2018-12-04T23:06:54.232Z,100.00
2018-12-04T23:09:22.508Z,100.00
2018-12-04T23:11:50.789Z,100.00
2018-12-04T23:14:19.320Z,100.00
2018-12-04T23:16:47.578Z,100.00
2018-12-04T23:21:42.212Z,100.00
2018-12-04T23:24:10.467Z,100.00
2018-12-04T23:26:38.762Z,100.00
2018-12-04T23:29:07.015Z,100.00
2018-12-04T23:31:35.261Z,100.00
2018-12-04T23:34:03.786Z,100.00
2018-12-04T23:36:32.309Z,100.00
2018-12-04T23:39:00.559Z,100.00
2018-12-04T23:41:28.892Z,100.00
2018-12-04T23:43:57.158Z,100.00
2018-12-04T23:46:25.506Z,100.00
2018-12-04T23:48:53.827Z,100.00
2018-12-04T23:51:22.072Z,100.00
2018-12-04T23:53:50.329Z,100.00
2018-12-04T23:56:18.626Z,100.00
2018-12-04T23:58:46.981Z,100.00
